sensor_id;sensor_type;location;lat;lon;timestamp;P1;durP1;ratioP1;P2;durP2;ratioP2
14167;SDS011;7163;50.626;12.922;2023-07-20T00:05:09;16.87;;;11.57;;
14167;SDS011;7163;50.626;12.922;2023-07-20T00:10:09;16.30;;;11.73;;
14167;SDS011;7163;50.626;12.922;2023-07-20T00:15:09;22.13;;;11.30;;
14167;SDS011;7163;50.626;12.922;2023-07-20T00:20:13;21.87;;;11.80;;
14167;SDS011;7163;50.626;12.922;2023-07-20T00:25:14;15.87;;;11.20;;
14167;SDS011;7163;50.626;12.922;2023-07-20T00:30:14;19.10;;;12.23;;
14167;SDS011;7163;50.626;12.922;2023-07-20T00:35:15;15.73;;;11.83;;
14167;SDS011;7163;50.626;12.922;2023-07-20T00:40:15;17.20;;;13.30;;
14167;SDS011;7163;50.626;12.922;2023-07-20T00:45:18;20.77;;;12.10;;
14167;SDS011;7163;50.626;12.922;2023-07-20T00:50:19;22.07;;;13.47;;
14167;SDS011;7163;50.626;12.922;2023-07-20T00:55:19;17.00;;;13.13;;
14167;SDS011;7163;50.626;12.922;2023-07-20T01:00:20;17.23;;;13.07;;
14167;SDS011;7163;50.626;12.922;2023-07-20T01:05:21;18.43;;;14.60;;
14167;SDS011;7163;50.626;12.922;2023-07-20T01:10:40;22.83;;;15.10;;
14167;SDS011;7163;50.626;12.922;2023-07-20T01:15:53;18.97;;;15.20;;
14167;SDS011;7163;50.626;12.922;2023-07-20T01:20:59;21.00;;;16.57;;
14167;SDS011;7163;50.626;12.922;2023-07-20T01:26:11;25.37;;;17.80;;
14167;SDS011;7163;50.626;12.922;2023-07-20T01:36:26;23.07;;;15.13;;
14167;SDS011;7163;50.626;12.922;2023-07-20T01:41:28;23.03;;;15.40;;
14167;SDS011;7163;50.626;12.922;2023-07-20T01:46:28;19.27;;;15.43;;
14167;SDS011;7163;50.626;12.922;2023-07-20T01:51:29;17.33;;;13.43;;
14167;SDS011;7163;50.626;12.922;2023-07-20T01:56:29;15.63;;;13.00;;
14167;SDS011;7163;50.626;12.922;2023-07-20T02:01:30;16.30;;;12.00;;
14167;SDS011;7163;50.626;12.922;2023-07-20T02:06:31;16.23;;;12.53;;
14167;SDS011;7163;50.626;12.922;2023-07-20T02:11:31;22.53;;;15.53;;
14167;SDS011;7163;50.626;12.922;2023-07-20T02:16:32;15.87;;;13.57;;
14167;SDS011;7163;50.626;12.922;2023-07-20T02:21:33;18.33;;;15.07;;
14167;SDS011;7163;50.626;12.922;2023-07-20T02:26:33;19.07;;;13.50;;
14167;SDS011;7163;50.626;12.922;2023-07-20T02:31:34;15.93;;;13.67;;
14167;SDS011;7163;50.626;12.922;2023-07-20T02:36:37;17.77;;;14.87;;
14167;SDS011;7163;50.626;12.922;2023-07-20T02:41:38;17.83;;;14.43;;
14167;SDS011;7163;50.626;12.922;2023-07-20T02:46:38;20.20;;;14.70;;
14167;SDS011;7163;50.626;12.922;2023-07-20T02:51:39;20.00;;;14.57;;
14167;SDS011;7163;50.626;12.922;2023-07-20T02:56:39;18.80;;;13.73;;
14167;SDS011;7163;50.626;12.922;2023-07-20T03:01:40;18.27;;;14.03;;
14167;SDS011;7163;50.626;12.922;2023-07-20T03:06:42;22.83;;;15.73;;
14167;SDS011;7163;50.626;12.922;2023-07-20T03:11:42;24.80;;;13.80;;
14167;SDS011;7163;50.626;12.922;2023-07-20T03:16:43;19.73;;;15.47;;
14167;SDS011;7163;50.626;12.922;2023-07-20T03:21:43;20.13;;;14.70;;
14167;SDS011;7163;50.626;12.922;2023-07-20T03:26:44;16.83;;;15.03;;
14167;SDS011;7163;50.626;12.922;2023-07-20T03:31:44;24.90;;;17.10;;
14167;SDS011;7163;50.626;12.922;2023-07-20T03:36:45;25.70;;;19.20;;
14167;SDS011;7163;50.626;12.922;2023-07-20T03:41:45;20.70;;;16.57;;
14167;SDS011;7163;50.626;12.922;2023-07-20T03:46:45;23.33;;;17.27;;
14167;SDS011;7163;50.626;12.922;2023-07-20T03:51:46;19.30;;;16.30;;
14167;SDS011;7163;50.626;12.922;2023-07-20T03:56:47;25.67;;;19.33;;
14167;SDS011;7163;50.626;12.922;2023-07-20T04:01:47;23.50;;;20.10;;
14167;SDS011;7163;50.626;12.922;2023-07-20T04:06:47;26.67;;;19.70;;
14167;SDS011;7163;50.626;12.922;2023-07-20T04:11:48;26.57;;;21.50;;
14167;SDS011;7163;50.626;12.922;2023-07-20T04:16:48;26.07;;;22.83;;
14167;SDS011;7163;50.626;12.922;2023-07-20T04:21:49;28.10;;;22.17;;
14167;SDS011;7163;50.626;12.922;2023-07-20T04:26:49;23.27;;;19.80;;
14167;SDS011;7163;50.626;12.922;2023-07-20T04:31:50;24.90;;;18.47;;
14167;SDS011;7163;50.626;12.922;2023-07-20T04:36:51;22.00;;;18.17;;
14167;SDS011;7163;50.626;12.922;2023-07-20T04:41:52;19.97;;;16.93;;
14167;SDS011;7163;50.626;12.922;2023-07-20T04:46:52;21.00;;;16.63;;
14167;SDS011;7163;50.626;12.922;2023-07-20T04:51:52;20.30;;;15.47;;
14167;SDS011;7163;50.626;12.922;2023-07-20T04:56:53;17.53;;;15.63;;
14167;SDS011;7163;50.626;12.922;2023-07-20T05:01:54;22.93;;;16.37;;
14167;SDS011;7163;50.626;12.922;2023-07-20T05:06:55;21.90;;;17.23;;
14167;SDS011;7163;50.626;12.922;2023-07-20T05:11:55;22.83;;;18.50;;
14167;SDS011;7163;50.626;12.922;2023-07-20T05:16:56;20.87;;;16.73;;
14167;SDS011;7163;50.626;12.922;2023-07-20T05:21:56;17.50;;;15.50;;
14167;SDS011;7163;50.626;12.922;2023-07-20T05:26:57;16.13;;;13.50;;
14167;SDS011;7163;50.626;12.922;2023-07-20T05:31:58;19.23;;;13.37;;
14167;SDS011;7163;50.626;12.922;2023-07-20T05:36:59;16.00;;;12.27;;
14167;SDS011;7163;50.626;12.922;2023-07-20T05:41:59;16.83;;;12.57;;
14167;SDS011;7163;50.626;12.922;2023-07-20T05:47:00;14.27;;;11.27;;
14167;SDS011;7163;50.626;12.922;2023-07-20T05:52:00;13.87;;;12.37;;
14167;SDS011;7163;50.626;12.922;2023-07-20T05:57:01;12.50;;;11.20;;
14167;SDS011;7163;50.626;12.922;2023-07-20T06:02:01;11.90;;;10.07;;
14167;SDS011;7163;50.626;12.922;2023-07-20T06:07:03;15.10;;;11.87;;
14167;SDS011;7163;50.626;12.922;2023-07-20T06:12:13;11.27;;;9.47;;
14167;SDS011;7163;50.626;12.922;2023-07-20T06:17:14;12.07;;;8.13;;
14167;SDS011;7163;50.626;12.922;2023-07-20T06:22:14;9.67;;;8.37;;
14167;SDS011;7163;50.626;12.922;2023-07-20T06:27:16;15.17;;;8.23;;
14167;SDS011;7163;50.626;12.922;2023-07-20T06:32:16;14.00;;;8.13;;
14167;SDS011;7163;50.626;12.922;2023-07-20T06:37:17;13.33;;;10.70;;
14167;SDS011;7163;50.626;12.922;2023-07-20T06:42:17;13.43;;;11.87;;
14167;SDS011;7163;50.626;12.922;2023-07-20T06:47:18;14.90;;;12.37;;
14167;SDS011;7163;50.626;12.922;2023-07-20T06:52:18;13.17;;;9.83;;
14167;SDS011;7163;50.626;12.922;2023-07-20T06:57:18;18.03;;;11.67;;
14167;SDS011;7163;50.626;12.922;2023-07-20T07:02:19;14.50;;;11.67;;
14167;SDS011;7163;50.626;12.922;2023-07-20T07:07:20;14.63;;;11.30;;
14167;SDS011;7163;50.626;12.922;2023-07-20T07:12:23;15.97;;;11.83;;
14167;SDS011;7163;50.626;12.922;2023-07-20T07:17:23;12.73;;;10.37;;
14167;SDS011;7163;50.626;12.922;2023-07-20T07:22:24;10.23;;;8.73;;
14167;SDS011;7163;50.626;12.922;2023-07-20T07:27:25;13.83;;;9.70;;
14167;SDS011;7163;50.626;12.922;2023-07-20T07:32:26;13.30;;;10.50;;
14167;SDS011;7163;50.626;12.922;2023-07-20T07:37:26;12.27;;;8.87;;
14167;SDS011;7163;50.626;12.922;2023-07-20T07:42:28;12.07;;;8.47;;
14167;SDS011;7163;50.626;12.922;2023-07-20T07:47:29;13.83;;;9.77;;
14167;SDS011;7163;50.626;12.922;2023-07-20T07:52:29;10.15;;;8.07;;
14167;SDS011;7163;50.626;12.922;2023-07-20T07:57:30;9.63;;;6.30;;
14167;SDS011;7163;50.626;12.922;2023-07-20T08:02:30;8.98;;;5.57;;
14167;SDS011;7163;50.626;12.922;2023-07-20T08:07:35;7.75;;;5.25;;
14167;SDS011;7163;50.626;12.922;2023-07-20T08:12:38;8.60;;;5.70;;
14167;SDS011;7163;50.626;12.922;2023-07-20T08:17:38;10.20;;;5.03;;
14167;SDS011;7163;50.626;12.922;2023-07-20T08:22:39;9.07;;;5.75;;
14167;SDS011;7163;50.626;12.922;2023-07-20T08:27:39;9.18;;;4.55;;
14167;SDS011;7163;50.626;12.922;2023-07-20T08:32:41;6.80;;;4.15;;
14167;SDS011;7163;50.626;12.922;2023-07-20T08:37:41;7.47;;;4.07;;
14167;SDS011;7163;50.626;12.922;2023-07-20T08:42:45;6.25;;;4.13;;
14167;SDS011;7163;50.626;12.922;2023-07-20T08:47:46;7.47;;;4.00;;
14167;SDS011;7163;50.626;12.922;2023-07-20T08:52:47;4.85;;;3.60;;
14167;SDS011;7163;50.626;12.922;2023-07-20T08:57:49;6.47;;;3.17;;
14167;SDS011;7163;50.626;12.922;2023-07-20T09:02:54;5.97;;;3.83;;
14167;SDS011;7163;50.626;12.922;2023-07-20T09:07:55;3.50;;;3.10;;
14167;SDS011;7163;50.626;12.922;2023-07-20T09:12:55;5.63;;;3.10;;
14167;SDS011;7163;50.626;12.922;2023-07-20T09:18:05;6.72;;;2.60;;
14167;SDS011;7163;50.626;12.922;2023-07-20T09:23:06;6.05;;;3.13;;
14167;SDS011;7163;50.626;12.922;2023-07-20T09:28:06;5.20;;;3.17;;
14167;SDS011;7163;50.626;12.922;2023-07-20T09:33:07;5.45;;;3.08;;
14167;SDS011;7163;50.626;12.922;2023-07-20T09:38:18;6.28;;;3.17;;
14167;SDS011;7163;50.626;12.922;2023-07-20T09:43:19;8.95;;;3.33;;
14167;SDS011;7163;50.626;12.922;2023-07-20T09:48:23;9.52;;;3.00;;
14167;SDS011;7163;50.626;12.922;2023-07-20T09:53:26;3.83;;;2.45;;
14167;SDS011;7163;50.626;12.922;2023-07-20T09:58:27;2.97;;;2.20;;
14167;SDS011;7163;50.626;12.922;2023-07-20T10:03:28;2.92;;;2.13;;
14167;SDS011;7163;50.626;12.922;2023-07-20T10:08:30;3.55;;;2.22;;
14167;SDS011;7163;50.626;12.922;2023-07-20T10:13:31;3.55;;;2.10;;
14167;SDS011;7163;50.626;12.922;2023-07-20T10:18:51;5.68;;;2.10;;
14167;SDS011;7163;50.626;12.922;2023-07-20T10:24:03;3.13;;;2.40;;
14167;SDS011;7163;50.626;12.922;2023-07-20T10:29:04;3.35;;;2.08;;
14167;SDS011;7163;50.626;12.922;2023-07-20T10:34:07;2.78;;;2.03;;
14167;SDS011;7163;50.626;12.922;2023-07-20T10:39:07;4.40;;;1.80;;
14167;SDS011;7163;50.626;12.922;2023-07-20T10:44:23;2.83;;;1.83;;
14167;SDS011;7163;50.626;12.922;2023-07-20T10:49:23;4.18;;;2.00;;
14167;SDS011;7163;50.626;12.922;2023-07-20T11:04:44;2.45;;;1.90;;
14167;SDS011;7163;50.626;12.922;2023-07-20T11:09:45;6.93;;;2.28;;
14167;SDS011;7163;50.626;12.922;2023-07-20T11:14:55;2.33;;;2.00;;
14167;SDS011;7163;50.626;12.922;2023-07-20T11:19:58;4.28;;;2.75;;
14167;SDS011;7163;50.626;12.922;2023-07-20T11:25:00;3.30;;;2.55;;
14167;SDS011;7163;50.626;12.922;2023-07-20T11:30:01;7.20;;;2.60;;
14167;SDS011;7163;50.626;12.922;2023-07-20T11:35:02;3.50;;;2.03;;
14167;SDS011;7163;50.626;12.922;2023-07-20T11:40:02;2.38;;;2.03;;
14167;SDS011;7163;50.626;12.922;2023-07-20T11:45:04;3.95;;;2.30;;
14167;SDS011;7163;50.626;12.922;2023-07-20T11:50:06;3.67;;;1.73;;
14167;SDS011;7163;50.626;12.922;2023-07-20T11:55:07;1.90;;;1.70;;
14167;SDS011;7163;50.626;12.922;2023-07-20T12:00:09;5.30;;;2.20;;
14167;SDS011;7163;50.626;12.922;2023-07-20T12:05:11;3.33;;;2.10;;
14167;SDS011;7163;50.626;12.922;2023-07-20T12:10:12;4.20;;;1.98;;
14167;SDS011;7163;50.626;12.922;2023-07-20T12:20:26;3.03;;;2.08;;
14167;SDS011;7163;50.626;12.922;2023-07-20T12:25:37;3.97;;;2.47;;
14167;SDS011;7163;50.626;12.922;2023-07-20T12:30:42;4.72;;;2.53;;
14167;SDS011;7163;50.626;12.922;2023-07-20T12:35:44;5.07;;;3.30;;
14167;SDS011;7163;50.626;12.922;2023-07-20T12:40:45;8.13;;;3.70;;
14167;SDS011;7163;50.626;12.922;2023-07-20T12:45:46;6.23;;;4.63;;
14167;SDS011;7163;50.626;12.922;2023-07-20T12:50:46;10.73;;;6.80;;
14167;SDS011;7163;50.626;12.922;2023-07-20T12:55:47;8.30;;;6.53;;
14167;SDS011;7163;50.626;12.922;2023-07-20T13:00:47;9.10;;;6.97;;
14167;SDS011;7163;50.626;12.922;2023-07-20T13:05:48;12.20;;;9.23;;
14167;SDS011;7163;50.626;12.922;2023-07-20T13:10:49;13.63;;;9.57;;
14167;SDS011;7163;50.626;12.922;2023-07-20T13:15:50;12.97;;;10.33;;
14167;SDS011;7163;50.626;12.922;2023-07-20T13:20:53;11.63;;;9.40;;
14167;SDS011;7163;50.626;12.922;2023-07-20T13:25:54;8.20;;;6.50;;
14167;SDS011;7163;50.626;12.922;2023-07-20T13:30:57;6.90;;;4.77;;
14167;SDS011;7163;50.626;12.922;2023-07-20T13:36:01;8.35;;;5.65;;
14167;SDS011;7163;50.626;12.922;2023-07-20T13:41:05;5.53;;;4.78;;
14167;SDS011;7163;50.626;12.922;2023-07-20T13:46:05;6.38;;;4.00;;
14167;SDS011;7163;50.626;12.922;2023-07-20T13:51:07;5.43;;;4.70;;
14167;SDS011;7163;50.626;12.922;2023-07-20T13:56:08;5.30;;;4.35;;
14167;SDS011;7163;50.626;12.922;2023-07-20T14:01:08;6.13;;;3.80;;
14167;SDS011;7163;50.626;12.922;2023-07-20T14:06:11;5.10;;;3.38;;
14167;SDS011;7163;50.626;12.922;2023-07-20T14:11:13;3.75;;;3.05;;
14167;SDS011;7163;50.626;12.922;2023-07-20T14:16:25;4.40;;;3.30;;
14167;SDS011;7163;50.626;12.922;2023-07-20T14:21:26;3.88;;;3.20;;
14167;SDS011;7163;50.626;12.922;2023-07-20T14:26:27;4.20;;;3.30;;
14167;SDS011;7163;50.626;12.922;2023-07-20T14:31:27;6.88;;;4.15;;
14167;SDS011;7163;50.626;12.922;2023-07-20T14:36:28;6.03;;;3.95;;
14167;SDS011;7163;50.626;12.922;2023-07-20T14:41:31;3.72;;;3.15;;
14167;SDS011;7163;50.626;12.922;2023-07-20T14:46:34;3.83;;;3.42;;
14167;SDS011;7163;50.626;12.922;2023-07-20T14:51:34;3.47;;;3.17;;
14167;SDS011;7163;50.626;12.922;2023-07-20T14:56:37;4.95;;;3.30;;
14167;SDS011;7163;50.626;12.922;2023-07-20T15:01:41;4.80;;;3.40;;
14167;SDS011;7163;50.626;12.922;2023-07-20T15:06:45;3.67;;;3.28;;
14167;SDS011;7163;50.626;12.922;2023-07-20T15:11:49;5.53;;;3.60;;
14167;SDS011;7163;50.626;12.922;2023-07-20T15:16:49;7.95;;;3.58;;
14167;SDS011;7163;50.626;12.922;2023-07-20T15:21:50;4.35;;;3.33;;
14167;SDS011;7163;50.626;12.922;2023-07-20T15:26:50;3.47;;;3.08;;
14167;SDS011;7163;50.626;12.922;2023-07-20T15:31:50;6.05;;;3.15;;
14167;SDS011;7163;50.626;12.922;2023-07-20T15:36:53;4.35;;;3.53;;
14167;SDS011;7163;50.626;12.922;2023-07-20T15:41:54;3.30;;;3.00;;
14167;SDS011;7163;50.626;12.922;2023-07-20T15:46:58;3.65;;;3.30;;
14167;SDS011;7163;50.626;12.922;2023-07-20T15:51:59;4.53;;;2.70;;
14167;SDS011;7163;50.626;12.922;2023-07-20T15:56:59;2.55;;;2.35;;
14167;SDS011;7163;50.626;12.922;2023-07-20T16:02:00;2.55;;;2.35;;
14167;SDS011;7163;50.626;12.922;2023-07-20T16:07:01;2.83;;;2.58;;
14167;SDS011;7163;50.626;12.922;2023-07-20T16:12:02;2.67;;;2.35;;
14167;SDS011;7163;50.626;12.922;2023-07-20T16:17:03;3.50;;;2.40;;
14167;SDS011;7163;50.626;12.922;2023-07-20T16:22:04;3.60;;;2.50;;
14167;SDS011;7163;50.626;12.922;2023-07-20T16:27:05;2.20;;;2.00;;
14167;SDS011;7163;50.626;12.922;2023-07-20T16:32:06;5.13;;;2.03;;
14167;SDS011;7163;50.626;12.922;2023-07-20T16:37:09;2.22;;;2.03;;
14167;SDS011;7163;50.626;12.922;2023-07-20T16:42:09;2.25;;;1.88;;
14167;SDS011;7163;50.626;12.922;2023-07-20T16:47:10;3.50;;;2.30;;
14167;SDS011;7163;50.626;12.922;2023-07-20T16:52:10;7.03;;;2.25;;
14167;SDS011;7163;50.626;12.922;2023-07-20T16:57:11;2.20;;;2.10;;
14167;SDS011;7163;50.626;12.922;2023-07-20T17:02:11;2.75;;;2.50;;
14167;SDS011;7163;50.626;12.922;2023-07-20T17:07:12;2.53;;;2.15;;
14167;SDS011;7163;50.626;12.922;2023-07-20T17:12:15;2.17;;;1.95;;
14167;SDS011;7163;50.626;12.922;2023-07-20T17:17:16;3.75;;;1.83;;
14167;SDS011;7163;50.626;12.922;2023-07-20T17:22:22;2.08;;;1.88;;
14167;SDS011;7163;50.626;12.922;2023-07-20T17:27:23;3.08;;;1.92;;
14167;SDS011;7163;50.626;12.922;2023-07-20T17:32:23;4.38;;;1.90;;
14167;SDS011;7163;50.626;12.922;2023-07-20T17:37:24;5.40;;;2.13;;
14167;SDS011;7163;50.626;12.922;2023-07-20T17:42:24;2.90;;;2.10;;
14167;SDS011;7163;50.626;12.922;2023-07-20T17:47:28;2.22;;;2.05;;
14167;SDS011;7163;50.626;12.922;2023-07-20T17:52:28;3.20;;;2.33;;
14167;SDS011;7163;50.626;12.922;2023-07-20T17:57:29;2.40;;;2.20;;
14167;SDS011;7163;50.626;12.922;2023-07-20T18:02:29;2.22;;;2.03;;
14167;SDS011;7163;50.626;12.922;2023-07-20T18:07:30;4.30;;;2.20;;
14167;SDS011;7163;50.626;12.922;2023-07-20T18:12:33;4.00;;;2.65;;
14167;SDS011;7163;50.626;12.922;2023-07-20T18:17:35;3.83;;;2.92;;
14167;SDS011;7163;50.626;12.922;2023-07-20T18:22:36;4.65;;;2.60;;
14167;SDS011;7163;50.626;12.922;2023-07-20T18:27:40;3.83;;;2.65;;
14167;SDS011;7163;50.626;12.922;2023-07-20T18:32:40;3.25;;;2.60;;
14167;SDS011;7163;50.626;12.922;2023-07-20T18:37:41;3.77;;;2.83;;
14167;SDS011;7163;50.626;12.922;2023-07-20T18:42:42;3.23;;;2.73;;
14167;SDS011;7163;50.626;12.922;2023-07-20T18:47:43;4.10;;;3.30;;
14167;SDS011;7163;50.626;12.922;2023-07-20T18:52:50;3.80;;;3.40;;
14167;SDS011;7163;50.626;12.922;2023-07-20T18:57:52;4.13;;;3.40;;
14167;SDS011;7163;50.626;12.922;2023-07-20T19:02:52;4.13;;;3.57;;
14167;SDS011;7163;50.626;12.922;2023-07-20T19:07:53;3.90;;;3.20;;
14167;SDS011;7163;50.626;12.922;2023-07-20T19:12:53;4.93;;;3.57;;
14167;SDS011;7163;50.626;12.922;2023-07-20T19:17:54;4.60;;;3.67;;
14167;SDS011;7163;50.626;12.922;2023-07-20T19:22:54;6.70;;;3.60;;
14167;SDS011;7163;50.626;12.922;2023-07-20T19:27:58;6.27;;;5.20;;
14167;SDS011;7163;50.626;12.922;2023-07-20T19:32:58;6.73;;;4.80;;
14167;SDS011;7163;50.626;12.922;2023-07-20T19:37:59;6.67;;;4.23;;
14167;SDS011;7163;50.626;12.922;2023-07-20T19:43:00;4.83;;;4.33;;
14167;SDS011;7163;50.626;12.922;2023-07-20T19:48:03;5.50;;;4.37;;
14167;SDS011;7163;50.626;12.922;2023-07-20T19:53:05;6.40;;;5.27;;
14167;SDS011;7163;50.626;12.922;2023-07-20T19:58:06;10.90;;;8.03;;
14167;SDS011;7163;50.626;12.922;2023-07-20T20:03:06;7.17;;;5.47;;
14167;SDS011;7163;50.626;12.922;2023-07-20T20:08:07;10.37;;;9.27;;
14167;SDS011;7163;50.626;12.922;2023-07-20T20:13:08;8.07;;;6.57;;
14167;SDS011;7163;50.626;12.922;2023-07-20T20:18:09;6.33;;;5.40;;
14167;SDS011;7163;50.626;12.922;2023-07-20T20:23:16;6.67;;;5.97;;
14167;SDS011;7163;50.626;12.922;2023-07-20T20:28:18;7.70;;;5.60;;
14167;SDS011;7163;50.626;12.922;2023-07-20T20:33:19;6.30;;;5.23;;
14167;SDS011;7163;50.626;12.922;2023-07-20T20:38:20;7.53;;;5.33;;
14167;SDS011;7163;50.626;12.922;2023-07-20T20:43:22;6.03;;;5.43;;
14167;SDS011;7163;50.626;12.922;2023-07-20T20:48:22;5.90;;;5.10;;
14167;SDS011;7163;50.626;12.922;2023-07-20T20:53:23;5.97;;;4.80;;
14167;SDS011;7163;50.626;12.922;2023-07-20T20:58:25;5.07;;;4.57;;
14167;SDS011;7163;50.626;12.922;2023-07-20T21:03:25;5.53;;;4.70;;
14167;SDS011;7163;50.626;12.922;2023-07-20T21:08:26;7.20;;;4.87;;
14167;SDS011;7163;50.626;12.922;2023-07-20T21:13:27;5.60;;;4.97;;
14167;SDS011;7163;50.626;12.922;2023-07-20T21:18:27;6.90;;;4.57;;
14167;SDS011;7163;50.626;12.922;2023-07-20T21:23:28;6.47;;;4.73;;
14167;SDS011;7163;50.626;12.922;2023-07-20T21:28:29;6.80;;;4.70;;
14167;SDS011;7163;50.626;12.922;2023-07-20T21:33:30;6.13;;;4.90;;
14167;SDS011;7163;50.626;12.922;2023-07-20T21:38:31;5.73;;;4.77;;
14167;SDS011;7163;50.626;12.922;2023-07-20T21:43:33;5.37;;;4.87;;
14167;SDS011;7163;50.626;12.922;2023-07-20T21:48:34;5.60;;;4.10;;
14167;SDS011;7163;50.626;12.922;2023-07-20T21:53:35;5.43;;;4.50;;
14167;SDS011;7163;50.626;12.922;2023-07-20T21:58:35;5.23;;;4.60;;
14167;SDS011;7163;50.626;12.922;2023-07-20T22:03:35;4.67;;;4.20;;
14167;SDS011;7163;50.626;12.922;2023-07-20T22:08:36;5.33;;;4.80;;
14167;SDS011;7163;50.626;12.922;2023-07-20T22:13:36;8.17;;;4.60;;
14167;SDS011;7163;50.626;12.922;2023-07-20T22:18:37;6.83;;;4.60;;
14167;SDS011;7163;50.626;12.922;2023-07-20T22:23:37;4.80;;;4.30;;
14167;SDS011;7163;50.626;12.922;2023-07-20T22:28:38;5.90;;;5.00;;
14167;SDS011;7163;50.626;12.922;2023-07-20T22:33:38;5.53;;;4.80;;
14167;SDS011;7163;50.626;12.922;2023-07-20T22:38:39;4.33;;;3.93;;
14167;SDS011;7163;50.626;12.922;2023-07-20T22:43:39;5.27;;;4.70;;
14167;SDS011;7163;50.626;12.922;2023-07-20T22:48:49;8.40;;;4.97;;
14167;SDS011;7163;50.626;12.922;2023-07-20T22:53:49;6.83;;;4.83;;
14167;SDS011;7163;50.626;12.922;2023-07-20T22:58:52;6.93;;;5.10;;
14167;SDS011;7163;50.626;12.922;2023-07-20T23:03:53;5.80;;;4.43;;
14167;SDS011;7163;50.626;12.922;2023-07-20T23:08:53;5.73;;;4.77;;
14167;SDS011;7163;50.626;12.922;2023-07-20T23:13:57;6.43;;;5.20;;
14167;SDS011;7163;50.626;12.922;2023-07-20T23:24:08;5.30;;;4.80;;
14167;SDS011;7163;50.626;12.922;2023-07-20T23:29:09;6.80;;;5.37;;
14167;SDS011;7163;50.626;12.922;2023-07-20T23:34:09;7.83;;;5.37;;
14167;SDS011;7163;50.626;12.922;2023-07-20T23:39:09;6.00;;;5.40;;
14167;SDS011;7163;50.626;12.922;2023-07-20T23:44:10;6.93;;;5.63;;
14167;SDS011;7163;50.626;12.922;2023-07-20T23:49:10;6.13;;;5.53;;
14167;SDS011;7163;50.626;12.922;2023-07-20T23:54:14;6.20;;;5.60;;
14167;SDS011;7163;50.626;12.922;2023-07-20T23:59:15;7.17;;;5.60;;
